Keyport, Washington
Current Conditions -  °F | °C
As of 3:55 PM on Thursday 18 Dec 2014 (Local Time) from KPWT Reporting Station
Overcast Overcast  
Wind Chill: 45°   Ceiling: 4100
Heat Index: 45°   Visibility: 3mi
Dew Point: 45°   Wind: 0mph
Humidity: 100%   Direction: NA
Pressure: 29.8"   Gusts: NA
Location:  47.7°N, 122.62°W
Report Text: KPWT 182355Z AUTO 00000KT 3SM FEW027 BKN041 OVC049 07/07 A2980 RMK AO1 P0005 60019 10080 20070 400800060 57020
Loading
Personal Weather Stations






























Interactive Weather Map New forecast layout! Learn more

10-Day Weather Forecast

Advertisements
Track Severe Weather on mobile